KSDC

Details ICAO KSDC (SDC)
Name WILLIAMSON SODUS
Region United States
Timezone America/New_York (UTC-5.0)
Plans Departing 5
Arriving 1
Stats Elevation 425 ft / 130 m (AMSL)
Location 43.234613° -77.119451°
Runways 1
Magnetic Variation 11.803° W
Sunrise 2017-12-13 12:33:43 UTC / 2017-12-13 07:33:43 Local
Sunset 2017-12-13 21:34:41 UTC / 2017-12-13 16:34:41 Local
Advertisement - Login to hide

Runways

ID Width Length Bearing (true) Bearing (mag) Surface Threshold Offset Overrun Length
10 59 ft / 18 m 3,792 ft / 1,156 m 88.22° 100.02° Asphalt 0 ft / 0 m 0 ft / 0 m
28 59 ft / 18 m 3,792 ft / 1,156 m 268.23° 280.03° Asphalt 0 ft / 0 m 0 ft / 0 m

Map

Weather


0- 5 10 15 20 25 30 35+ Temperature / ° C

Clouds and Precipitation
Forecast for 2017-12-14 00:00 UTC. Updated 2 hours ago

Ground ~20,000 ft ~40,000 ft Winds

METAR

KSDC 132315Z AUTO 23008KT 10SM OVC035 M08/M11 A2963 RMK AO2

TAF

Not found

Frequencies

Unicom 122.80 MHz CTAF/UNICOM
Approach 119.55 MHz ROCHESTER APP/DEP
Warning: Do not use this data for real-world aviation or navigation. No guarantee of current accuracy is given.